CYGH

Fort Good Hope Airport

Fort Good Hope, Northwest Territories, Canada
TAF CYGH 221511Z 2215/2224 25005KT P6SM -SN OVC025 TEMPO 2215/2222 3SM -SN OVC020 FM222200 VRB03KT P6SM SCT030 TEMPO 2222/2224 P6SM -SN BKN020 RMK NXT FCST BY 221800Z
Issued Valid From Valid To
Jan-22 @ 15:11 UTC
(2 hours ago)
Jan-22 @ 15:00 UTC
(2 hours ago)
Jan-23 @ 00:00 UTC
(in 7 hours)
Jan-22 @ 15:00 to Jan-22 @ 22:00
TAF CYGH 221511Z 2215/2224 25005KT P6SM -SN OVC025
Wind Visibility Clouds Conditions
250° at 5 knots Greater than 6 miles
  • Overcast at 2,500' AGL
  • Light Snow
Temporary Jan-22 @ 15:00 to Jan-22 @ 22:00
TEMPO 2215/2222 3SM -SN OVC020
Visibility Clouds Conditions
3 miles
  • Overcast at 2,000' AGL
  • Light Snow
From Jan-22 @ 22:00 to Jan-23 @ 00:00
FM222200 VRB03KT P6SM SCT030
Wind Visibility Clouds
Variable at 3 knots Greater than 6 miles
  • Scattered at 3,000' AGL
Temporary Jan-22 @ 22:00 to Jan-23 @ 00:00
TEMPO 2222/2224 P6SM -SN BKN020 RMK NXT FCST BY 221800Z
Visibility Clouds Conditions
Greater than 6 miles
  • Broken at 2,000' AGL
  • Light Snow
TAF CYGH 221511Z 2215/2224 25005KT P6SM -SN OVC025 TEMPO 2215/2222 3SM -SN OVC020 FM222200 VRB03KT P6SM SCT030 TEMPO 2222/2224 P6SM -SN BKN020 RMK NXT FCST BY 221800Z
Issued Jan-22 @ 15:11 UTC
(2 hours ago)
Valid From Jan-22 @ 15:00 UTC
(2 hours ago)
Valid To Jan-23 @ 00:00 UTC
(in 7 hours)
Jan-22 @ 15:00 - Jan-22 @ 22:00
Wind Visibility
250° at 5 knots Greater than 6 miles
Clouds
  • Overcast at 2,500' AGL
Conditions
  • Light Snow
Temporary Jan-22 @ 15:00 - Jan-22 @ 22:00
Clouds
  • Overcast at 2,000' AGL
Conditions
  • Light Snow
From Jan-22 @ 22:00 - Jan-23 @ 00:00
Wind Visibility
Variable at 3 knots Greater than 6 miles
Clouds
  • Scattered at 3,000' AGL
Temporary Jan-22 @ 22:00 - Jan-23 @ 00:00
Clouds
  • Broken at 2,000' AGL
Conditions
  • Light Snow